Time;durP1;ratioP1;P1;durP2;ratioP2;P2;SDS_P1;SDS_P2;PMS_P1;PMS_P2;Temp;Humidity;BMP_temperature;BMP_pressure;BME280_temperature;BME280_humidity;BME280_pressure;Samples;Min_cycle;Max_cycle;Signal;HPM_P1;HPM_P2
2021/10/29 00:04:02;;;;;;;32.95;29.48;;;;;;;6.65;75.43;100136.38;10500877;28;20040;-71
2021/10/29 00:09:04;;;;;;;34.40;28.77;;;;;;;6.49;76.00;100140.94;10482816;28;20106;-71
2021/10/29 00:14:06;;;;;;;37.35;29.38;;;;;;;6.49;76.39;100141.81;10500444;28;20044;-71
2021/10/29 00:19:07;;;;;;;43.13;31.50;;;;;;;6.53;76.22;100143.50;10482065;28;20087;-70
2021/10/29 00:24:09;;;;;;;40.67;31.08;;;;;;;6.35;76.23;100138.50;10499717;28;20128;-72
2021/10/29 00:29:11;;;;;;;40.10;30.92;;;;;;;6.39;76.37;100134.97;10499347;28;20047;-72
2021/10/29 00:34:13;;;;;;;41.35;31.90;;;;;;;6.55;75.93;100133.00;10499321;28;20040;-72
2021/10/29 00:39:15;;;;;;;42.80;32.35;;;;;;;6.41;76.25;100135.81;10481044;28;20052;-71
2021/10/29 00:44:22;;;;;;;41.75;32.10;;;;;;;6.29;76.47;100128.16;10500491;28;20459;-71
2021/10/29 00:49:23;;;;;;;39.42;31.38;;;;;;;6.24;76.68;100136.06;10501884;28;20047;-72
2021/10/29 00:54:25;;;;;;;37.72;31.98;;;;;;;5.89;77.57;100131.22;10483373;28;20053;-72
2021/10/29 00:59:29;;;;;;;35.75;31.98;;;;;;;5.95;77.93;100132.91;10506313;28;20532;-72
2021/10/29 01:04:31;;;;;;;46.85;32.28;;;;;;;5.76;78.57;100127.00;10506978;28;20044;-72
2021/10/29 01:09:33;;;;;;;43.53;33.05;;;;;;;5.90;78.27;100129.47;10507192;28;20077;-71
2021/10/29 01:14:35;;;;;;;44.03;33.10;;;;;;;5.62;78.94;100121.06;10506604;28;20061;-71
2021/10/29 01:19:38;;;;;;;34.45;30.67;;;;;;;5.42;79.62;100131.69;10487922;28;20055;-71
2021/10/29 01:24:40;;;;;;;42.78;33.65;;;;;;;5.31;80.08;100113.53;10487217;28;20044;-71
2021/10/29 01:29:43;;;;;;;40.60;32.35;;;;;;;5.23;80.23;100113.63;10505040;28;20041;-71
2021/10/29 01:34:44;;;;;;;43.58;34.20;;;;;;;5.24;80.54;100110.13;10505372;28;20106;-71
2021/10/29 01:39:46;;;;;;;34.72;30.85;;;;;;;5.19;80.24;100101.50;10486965;28;20045;-71
2021/10/29 01:44:47;;;;;;;35.42;31.40;;;;;;;5.05;80.64;100099.00;10506285;28;20049;-71
2021/10/29 01:49:49;;;;;;;45.72;34.88;;;;;;;5.05;80.84;100096.41;10487350;28;20044;-71
2021/10/29 01:54:51;;;;;;;44.22;33.00;;;;;;;4.95;81.33;100093.88;10503772;28;20138;-72
2021/10/29 01:59:52;;;;;;;40.47;33.72;;;;;;;5.03;81.04;100085.09;10504916;28;20048;-71
2021/10/29 02:04:54;;;;;;;47.17;35.72;;;;;;;4.98;81.35;100081.69;10503263;28;20494;-72
2021/10/29 02:09:56;;;;;;;45.50;34.42;;;;;;;4.88;81.07;100080.03;10505094;28;20098;-72
2021/10/29 02:14:58;;;;;;;43.70;33.67;;;;;;;4.76;81.03;100075.78;10486134;28;20102;-72
2021/10/29 02:20:00;;;;;;;48.35;36.03;;;;;;;4.48;81.69;100076.84;10503550;28;20041;-72
2021/10/29 02:25:02;;;;;;;45.92;35.35;;;;;;;4.32;82.49;100075.22;10485900;28;20052;-72
2021/10/29 02:30:04;;;;;;;41.25;34.40;;;;;;;4.23;82.85;100078.72;10503103;28;20037;-71
2021/10/29 02:35:06;;;;;;;49.90;36.70;;;;;;;4.25;83.08;100074.38;10502506;28;20494;-73
2021/10/29 02:40:09;;;;;;;50.20;35.95;;;;;;;4.17;82.56;100073.56;10501898;28;20064;-72
2021/10/29 02:45:11;;;;;;;39.65;34.55;;;;;;;3.91;83.34;100077.16;10502335;28;20141;-71
2021/10/29 02:50:17;;;;;;;46.97;35.58;;;;;;;3.93;83.84;100082.31;10503762;28;20094;-72
2021/10/29 02:55:19;;;;;;;42.10;33.63;;;;;;;3.88;83.52;100079.75;10503171;28;20375;-72
2021/10/29 03:00:20;;;;;;;43.55;34.50;;;;;;;4.02;82.58;100082.28;10502082;28;20036;-72
2021/10/29 03:05:22;;;;;;;46.78;35.90;;;;;;;3.86;83.24;100078.03;10501820;28;20052;-72
2021/10/29 03:10:23;;;;;;;45.00;35.92;;;;;;;3.79;83.37;100084.97;10502113;28;20536;-72
2021/10/29 03:15:25;;;;;;;50.03;36.03;;;;;;;3.79;83.64;100085.84;10499522;28;20167;-71
2021/10/29 03:20:27;;;;;;;49.58;36.80;;;;;;;3.70;83.85;100077.22;10500882;28;20098;-71
2021/10/29 03:25:28;;;;;;;58.33;38.78;;;;;;;3.66;84.17;100081.56;10501531;28;20414;-72
2021/10/29 03:30:30;;;;;;;51.35;37.65;;;;;;;3.61;84.24;100091.09;10501369;28;20064;-71
2021/10/29 03:35:32;;;;;;;52.70;38.40;;;;;;;3.77;84.79;100085.00;10500716;28;20048;-72
2021/10/29 03:45:45;;;;;;;63.47;43.28;;;;;;;3.79;86.36;100082.38;10500085;28;20049;-72
2021/10/29 03:51:01;;;;;;;58.80;40.67;;;;;;;3.98;86.72;100090.97;10499729;28;20555;-72
2021/10/29 03:56:04;;;;;;;56.53;40.17;;;;;;;4.24;85.80;100083.91;10482128;28;20102;-71
2021/10/29 04:01:05;;;;;;;51.45;40.00;;;;;;;4.29;84.91;100095.19;10500249;28;20048;-72
2021/10/29 04:06:08;;;;;;;49.08;39.47;;;;;;;4.48;84.10;100089.88;10499997;28;20048;-72
2021/10/29 04:11:09;;;;;;;56.78;39.42;;;;;;;4.73;82.88;100098.38;10500218;28;20060;-71
2021/10/29 04:16:11;;;;;;;52.72;40.17;;;;;;;4.37;83.48;100105.53;10499563;28;20139;-72
2021/10/29 04:21:13;;;;;;;48.97;38.65;;;;;;;4.40;83.96;100105.53;10481703;28;20036;-72
2021/10/29 04:26:15;;;;;;;49.95;40.17;;;;;;;4.60;84.05;100101.94;10481341;28;20048;-71
2021/10/29 04:31:20;;;;;;;55.20;40.17;;;;;;;4.47;83.43;100108.94;10488369;28;20076;-73
2021/10/29 04:36:23;;;;;;;59.00;39.72;;;;;;;4.29;83.66;100104.69;10506559;28;20131;-73
2021/10/29 04:41:29;;;;;;;53.25;41.80;;;;;;;4.25;83.39;100092.56;10472896;28;20128;-74
2021/10/29 04:46:31;;;;;;;55.90;40.10;;;;;;;4.14;83.97;100097.84;10505753;28;20051;-74
2021/10/29 04:51:34;;;;;;;55.05;39.40;;;;;;;4.14;83.93;100094.38;10487531;28;20048;-73
2021/10/29 04:56:36;;;;;;;51.50;39.85;;;;;;;4.03;84.11;100094.44;10506924;28;20489;-73
2021/10/29 05:01:37;;;;;;;55.45;40.00;;;;;;;4.00;84.26;100107.44;10505916;28;20041;-73
2021/10/29 05:06:39;;;;;;;60.38;43.17;;;;;;;4.05;84.56;100092.69;10506975;28;20051;-73
2021/10/29 05:11:41;;;;;;;59.92;41.90;;;;;;;3.95;84.59;100096.22;10505626;28;20047;-73
2021/10/29 05:16:43;;;;;;;59.55;40.88;;;;;;;3.78;84.88;100089.31;10504870;28;20094;-74
2021/10/29 05:21:44;;;;;;;66.32;43.50;;;;;;;3.97;85.22;100089.25;10505489;28;20086;-73
2021/10/29 05:26:46;;;;;;;57.85;42.97;;;;;;;3.83;85.31;100078.91;10487190;28;20456;-73
2021/10/29 05:31:48;;;;;;;62.92;44.53;;;;;;;3.88;85.24;100074.53;10505244;28;20049;-73
2021/10/29 05:36:50;;;;;;;60.08;43.40;;;;;;;3.82;86.14;100082.38;10504656;28;20502;-74
2021/10/29 05:41:51;;;;;;;64.15;45.30;;;;;;;3.69;86.10;100078.09;10503910;28;20517;-73
2021/10/29 05:46:54;;;;;;;68.35;45.38;;;;;;;3.91;86.36;100077.16;10487747;28;20053;-74
2021/10/29 05:51:57;;;;;;;68.25;43.60;;;;;;;4.09;84.36;100083.13;10504755;28;20048;-73
2021/10/29 05:57:04;;;;;;;62.45;44.80;;;;;;;4.09;84.98;100085.75;10486401;28;20082;-74
2021/10/29 06:02:06;;;;;;;61.25;44.40;;;;;;;4.20;84.73;100092.59;10503800;28;20064;-74
2021/10/29 06:07:08;;;;;;;70.80;45.13;;;;;;;4.13;83.85;100096.13;10504271;28;20059;-73
2021/10/29 06:12:11;;;;;;;66.30;45.45;;;;;;;4.44;84.03;100095.97;10503436;28;20064;-73
2021/10/29 06:17:17;;;;;;;74.75;43.65;;;;;;;4.52;83.99;100104.59;10503062;28;20044;-73
2021/10/29 06:22:54;;;;;;;63.58;44.55;;;;;;;4.52;83.97;100105.47;10503216;28;20045;-73
2021/10/29 06:33:10;;;;;;;74.00;47.80;;;;;;;4.77;82.84;100102.69;10502319;28;20052;-73
2021/10/29 06:38:12;;;;;;;61.60;45.65;;;;;;;4.85;82.30;100103.50;10502805;28;20091;-73
2021/10/29 06:48:34;;;;;;;62.28;42.92;;;;;;;5.06;81.99;100095.50;10501800;28;20089;-72
2021/10/29 07:41:38;;;;;;;55.40;38.20;;;;;;;6.55;76.63;100088.63;10500028;28;20128;-73
2021/10/29 07:46:41;;;;;;;49.20;39.55;;;;;;;6.56;76.70;100090.38;10499345;28;20451;-75
2021/10/29 07:51:43;;;;;;;51.83;37.50;;;;;;;6.67;76.43;100090.19;10500766;28;20036;-74
2021/10/29 07:56:44;;;;;;;48.60;39.03;;;;;;;6.86;75.57;100093.38;10481788;28;20053;-74
2021/10/29 08:01:52;;;;;;;44.25;35.63;;;;;;;7.40;73.03;100088.13;10499418;28;20047;-73
2021/10/29 08:06:54;;;;;;;43.53;35.75;;;;;;;7.40;72.99;100091.63;10499215;28;20082;-74
2021/10/29 08:11:57;;;;;;;45.70;36.13;;;;;;;7.42;73.03;100091.56;10481220;28;20102;-74
2021/10/29 08:16:58;;;;;;;43.35;35.90;;;;;;;7.50;73.60;100072.25;10499049;28;20082;-72
2021/10/29 08:22:02;;;;;;;39.20;34.72;;;;;;;7.97;71.84;100070.47;10501718;28;20044;-73
2021/10/29 08:27:05;;;;;;;41.25;34.65;;;;;;;8.00;70.82;100070.38;10463725;28;20048;-76
2021/10/29 08:32:08;;;;;;;39.40;34.78;;;;;;;8.26;70.06;100076.81;10488268;28;20048;-72
2021/10/29 08:37:10;;;;;;;37.67;33.15;;;;;;;8.44;69.38;100060.72;10499038;28;20049;-73
2021/10/29 08:42:12;;;;;;;35.95;32.25;;;;;;;8.43;69.59;100055.53;10535801;28;20401;-72
2021/10/29 08:47:14;;;;;;;36.33;32.63;;;;;;;8.69;68.36;100052.31;10506943;28;20040;-73
2021/10/29 08:52:21;;;;;;;33.35;30.35;;;;;;;8.90;67.59;100043.94;10500026;28;20039;-72
2021/10/29 08:57:24;;;;;;;;;;;;;;;8.96;67.37;100040.28;10520698;28;20097;-73
2021/10/29 09:02:35;;;;;;;34.03;30.45;;;;;;;9.15;66.36;100032.81;10537899;28;19926;-74
2021/10/29 09:07:55;;;;;;;38.60;31.20;;;;;;;9.19;66.82;100030.06;10480126;28;20049;-73
2021/10/29 09:34:24;;;;;;;30.27;27.40;;;;;;;10.18;62.87;100000.16;10463550;28;20426;-73
2021/10/29 09:39:29;;;;;;;29.73;27.17;;;;;;;10.32;62.44;99994.50;10489409;28;20044;-73
2021/10/29 09:44:47;;;;;;;27.80;25.45;;;;;;;10.49;61.32;99991.31;10486804;28;20060;-74
2021/10/29 09:50:06;;;;;;;31.00;26.38;;;;;;;10.56;61.25;99985.81;10505699;28;20079;-72
2021/10/29 10:00:12;;;;;;;28.50;25.80;;;;;;;10.78;60.82;99969.34;10504052;28;20040;-73
2021/10/29 10:05:17;;;;;;;26.65;24.65;;;;;;;11.08;59.59;99965.66;10486275;28;20502;-73
2021/10/29 10:10:19;;;;;;;28.63;25.83;;;;;;;11.11;59.95;99972.56;10503737;28;20044;-73
2021/10/29 10:15:21;;;;;;;27.13;25.02;;;;;;;11.51;58.46;99981.69;10503224;28;20136;-74
2021/10/29 10:20:24;;;;;;;26.23;24.20;;;;;;;12.34;55.62;99968.88;10503059;28;20040;-73
2021/10/29 10:30:53;;;;;;;26.48;23.80;;;;;;;13.11;53.76;99958.66;10533161;22;20043;-73
2021/10/29 10:46:57;;;;;;;24.42;22.52;;;;;;;13.72;51.41;99953.28;10459826;28;20041;-73
2021/10/29 11:13:01;;;;;;;24.48;22.45;;;;;;;14.26;48.87;99905.84;10457990;28;20040;-72
2021/10/29 11:18:28;;;;;;;22.80;20.92;;;;;;;14.29;50.53;99910.94;10458799;28;20049;-73
2021/10/29 11:23:34;;;;;;;22.83;20.95;;;;;;;14.62;47.54;99890.81;10456949;28;20045;-72
2021/10/29 11:28:42;;;;;;;22.83;20.75;;;;;;;14.38;47.36;99887.53;10457974;28;20045;-73
2021/10/29 11:33:55;;;;;;;23.02;21.00;;;;;;;14.03;48.50;99889.31;10457001;28;20056;-72
2021/10/29 11:38:58;;;;;;;20.73;18.98;;;;;;;13.81;49.16;99886.84;10478756;28;20040;-71
2021/10/29 11:44:06;;;;;;;20.02;18.27;;;;;;;13.50;49.04;99879.50;10502786;28;20074;-72
2021/10/29 11:49:12;;;;;;;20.13;18.35;;;;;;;13.28;49.41;99871.69;10501136;28;20493;-72
2021/10/29 11:54:23;;;;;;;19.60;18.20;;;;;;;13.25;50.31;99861.25;10499373;28;20395;-73
2021/10/29 12:10:12;;;;;;;18.15;16.52;;;;;;;12.95;50.08;99841.50;10500051;28;20028;-71
2021/10/29 12:15:26;;;;;;;18.05;16.65;;;;;;;12.98;50.25;99820.25;10500589;28;20048;-72
2021/10/29 12:20:42;;;;;;;20.30;18.67;;;;;;;12.99;50.84;99821.97;10500005;28;20045;-72
2021/10/29 13:03:10;;;;;;;22.30;20.10;;;;;;;12.79;50.27;99778.00;10488234;28;20136;-71
2021/10/29 13:08:19;;;;;;;20.23;18.42;;;;;;;12.74;51.00;99766.81;10506139;28;20044;-71
2021/10/29 13:18:42;;;;;;;20.55;18.95;;;;;;;12.76;50.10;99755.28;10504778;28;20048;-71
2021/10/29 13:29:21;;;;;;;19.52;17.63;;;;;;;12.74;49.62;99741.28;10504652;28;20040;-72
2021/10/29 13:50:34;;;;;;;16.83;15.38;;;;;;;12.86;47.09;99747.78;10501777;28;20044;-71
2021/10/29 14:01:01;;;;;;;18.77;17.20;;;;;;;12.63;46.73;99744.41;10505131;28;20417;-72
2021/10/29 14:33:03;;;;;;;17.92;16.35;;;;;;;12.74;47.73;99737.78;10502676;28;20076;-71
2021/10/29 14:43:22;;;;;;;19.35;17.38;;;;;;;12.60;48.36;99731.34;10484576;28;20043;-71
2021/10/29 15:41:12;;;;;;;21.40;19.70;;;;;;;11.22;54.49;99735.41;10480747;28;20452;-70
2021/10/29 15:46:27;;;;;;;24.83;21.35;;;;;;;11.08;55.08;99741.22;10498187;28;20040;-70
2021/10/29 15:51:30;;;;;;;22.98;21.08;;;;;;;10.94;55.79;99741.75;10498497;28;20128;-70
2021/10/29 15:56:46;;;;;;;22.13;20.17;;;;;;;10.48;57.02;99737.31;10491013;28;20052;-71
2021/10/29 16:02:00;;;;;;;22.65;20.50;;;;;;;10.28;57.86;99733.66;10470055;28;20095;-71
2021/10/29 16:17:42;;;;;;;24.48;22.30;;;;;;;9.52;60.78;99734.44;10456312;28;20040;-71
2021/10/29 16:22:44;;;;;;;38.25;33.55;;;;;;;9.61;61.24;99741.16;10456834;28;20094;-71
2021/10/29 16:27:57;;;;;;;47.22;39.50;;;;;;;9.58;61.60;99742.09;10481128;28;20054;-71
2021/10/29 16:38:03;;;;;;;77.68;45.47;;;;;;;9.35;62.32;99739.34;10534115;28;20063;-73
2021/10/29 16:43:05;;;;;;;37.60;29.88;;;;;;;9.45;62.69;99734.69;10508160;28;20040;-74
2021/10/29 16:48:08;;;;;;;39.17;27.80;;;;;;;8.87;63.79;99741.72;10534312;28;20093;-75
2021/10/29 16:53:10;;;;;;;32.25;27.70;;;;;;;8.76;64.68;99734.13;10531640;28;20463;-75
2021/10/29 16:58:13;;;;;;;30.50;27.27;;;;;;;8.73;64.99;99740.34;10550112;28;20056;-75
2021/10/29 17:03:15;;;;;;;34.25;29.58;;;;;;;8.62;65.75;99731.91;10549912;28;20111;-74
2021/10/29 17:08:17;;;;;;;32.42;29.15;;;;;;;8.30;66.69;99723.19;10549367;28;20127;-76
2021/10/29 17:13:19;;;;;;;42.85;29.80;;;;;;;8.28;66.59;99717.13;10549195;28;20437;-75
2021/10/29 17:18:20;;;;;;;41.53;30.33;;;;;;;8.03;67.86;99716.06;10549442;28;20102;-75
2021/10/29 17:23:22;;;;;;;32.20;29.08;;;;;;;7.78;68.69;99726.31;10530056;28;20048;-75
2021/10/29 17:28:24;;;;;;;37.70;30.05;;;;;;;7.79;69.00;99728.00;10549504;28;20036;-74
2021/10/29 17:33:25;;;;;;;43.28;30.48;;;;;;;7.92;68.73;99721.56;10547957;28;20036;-74
2021/10/29 17:38:27;;;;;;;36.80;30.02;;;;;;;8.08;67.99;99719.41;10529282;28;20102;-74
2021/10/29 17:43:29;;;;;;;36.45;29.60;;;;;;;8.12;68.13;99717.59;10548414;28;20431;-75
2021/10/29 17:48:31;;;;;;;31.40;28.35;;;;;;;8.17;67.69;99711.31;10548090;28;20048;-75
2021/10/29 17:53:33;;;;;;;31.27;27.27;;;;;;;8.24;67.33;99717.25;10546951;28;20044;-75
2021/10/29 17:58:35;;;;;;;29.73;26.65;;;;;;;8.28;66.36;99724.13;10547780;28;20047;-74
2021/10/29 18:03:36;;;;;;;30.48;27.42;;;;;;;8.53;65.84;99738.28;10528703;28;20107;-74
2021/10/29 18:08:54;;;;;;;28.92;25.95;;;;;;;8.27;66.87;99738.09;10513980;28;20058;-74
2021/10/29 18:13:56;;;;;;;28.20;25.48;;;;;;;8.31;67.05;99739.75;10546483;28;20099;-75
2021/10/29 18:18:58;;;;;;;28.85;25.80;;;;;;;8.37;67.02;99737.00;10528489;28;20146;-75
2021/10/29 18:24:00;;;;;;;27.95;25.15;;;;;;;7.81;68.51;99729.72;10547080;28;20404;-74
2021/10/29 18:29:03;;;;;;;28.20;25.45;;;;;;;7.74;68.56;99732.50;10529077;28;20532;-75
2021/10/29 18:34:06;;;;;;;28.40;25.45;;;;;;;7.51;69.55;99738.31;10547117;28;20440;-74
2021/10/29 18:39:07;;;;;;;28.77;25.60;;;;;;;7.49;69.53;99746.19;10545537;28;20040;-74
2021/10/29 18:44:09;;;;;;;27.50;24.10;;;;;;;7.46;70.05;99743.66;10543703;28;20039;-75
2021/10/29 18:49:11;;;;;;;26.63;24.00;;;;;;;7.36;70.09;99743.91;10544608;28;20052;-75
2021/10/29 18:54:12;;;;;;;34.20;25.10;;;;;;;7.17;70.40;99746.06;10545807;28;20040;-76
2021/10/29 18:59:14;;;;;;;27.15;24.88;;;;;;;7.09;70.77;99748.88;10546199;28;20052;-75
2021/10/29 19:04:16;;;;;;;28.42;25.52;;;;;;;7.02;70.88;99748.13;10528205;28;20044;-74
2021/10/29 19:09:18;;;;;;;27.35;24.88;;;;;;;6.90;70.95;99760.59;10528319;28;20412;-74
2021/10/29 19:14:22;;;;;;;25.55;23.55;;;;;;;6.93;71.55;99758.78;10545246;28;20472;-74
2021/10/29 19:19:24;;;;;;;28.75;25.90;;;;;;;6.93;71.83;99755.31;10546092;28;20048;-75
2021/10/29 19:24:25;;;;;;;29.95;26.65;;;;;;;6.70;72.42;99766.25;10545412;28;20040;-75
2021/10/29 19:29:28;;;;;;;26.92;24.70;;;;;;;6.49;72.72;99768.38;10545300;28;20444;-76
2021/10/29 19:34:30;;;;;;;31.67;28.33;;;;;;;6.58;73.33;99776.03;10544876;28;20040;-74
2021/10/29 19:44:37;;;;;;;28.80;26.00;;;;;;;6.55;72.54;99770.91;10543877;28;20040;-74
2021/10/29 19:49:39;;;;;;;34.05;28.58;;;;;;;6.68;72.66;99773.25;10542813;28;20052;-74
2021/10/29 19:54:40;;;;;;;41.72;30.95;;;;;;;6.65;72.35;99770.72;10525710;28;20036;-75
2021/10/29 19:59:42;;;;;;;34.15;29.63;;;;;;;6.62;72.19;99770.75;10543388;28;20051;-74
2021/10/29 20:04:44;;;;;;;31.50;28.23;;;;;;;6.47;72.89;99775.41;10542500;28;20354;-74
2021/10/29 20:09:46;;;;;;;36.55;28.60;;;;;;;6.28;73.53;99779.22;10543086;28;20552;-74
2021/10/29 20:14:49;;;;;;;37.13;27.88;;;;;;;6.33;73.37;99785.25;10542466;28;20048;-74
2021/10/29 20:19:51;;;;;;;30.30;27.30;;;;;;;5.93;74.82;99788.56;10540978;28;20595;-75
2021/10/29 20:24:52;;;;;;;31.85;28.05;;;;;;;5.66;75.52;99804.59;10524539;28;20122;-74
2021/10/29 20:29:54;;;;;;;32.35;28.90;;;;;;;5.59;76.01;99803.84;10542520;28;20094;-74
2021/10/29 20:34:56;;;;;;;30.85;27.70;;;;;;;5.57;76.30;99800.38;10542685;28;20079;-74
2021/10/29 20:39:57;;;;;;;29.73;26.70;;;;;;;5.74;76.19;99805.34;10544031;28;20083;-75
2021/10/29 20:45:00;;;;;;;30.65;27.38;;;;;;;5.79;75.93;99817.41;10542283;28;20059;-75
2021/10/29 20:50:02;;;;;;;27.90;25.52;;;;;;;5.90;75.46;99811.19;10541849;28;20118;-74
2021/10/29 20:55:08;;;;;;;28.60;25.88;;;;;;;6.06;74.83;99815.28;10540809;28;20139;-74
2021/10/29 21:00:10;;;;;;;30.33;26.40;;;;;;;6.08;74.90;99821.34;10523682;28;20076;-74
2021/10/29 21:05:12;;;;;;;27.77;25.23;;;;;;;6.19;74.65;99821.16;10541296;28;20052;-74
2021/10/29 21:10:13;;;;;;;27.25;24.75;;;;;;;6.18;74.81;99837.72;10541809;28;20044;-74
2021/10/29 21:15:17;;;;;;;29.52;24.48;;;;;;;6.16;74.79;99832.53;10549523;28;20062;-74
2021/10/29 21:20:20;;;;;;;28.45;25.50;;;;;;;6.22;74.52;99827.19;10547841;28;20044;-74
2021/10/29 21:25:21;;;;;;;34.53;27.08;;;;;;;6.70;73.54;99821.09;10512956;28;20048;-74
2021/10/29 21:30:23;;;;;;;33.50;26.50;;;;;;;6.45;72.97;99825.91;10548248;28;20139;-74
2021/10/29 21:35:25;;;;;;;27.73;25.25;;;;;;;5.94;74.10;99826.81;10547411;28;20110;-74
2021/10/29 21:40:26;;;;;;;32.88;27.20;;;;;;;5.80;75.03;99837.44;10528830;28;20327;-74
2021/10/29 21:45:28;;;;;;;30.67;26.98;;;;;;;5.67;76.08;99827.22;10546658;28;20070;-74
2021/10/29 21:50:30;;;;;;;27.10;24.35;;;;;;;5.67;76.44;99816.78;10546872;28;20131;-74
2021/10/29 21:55:32;;;;;;;27.45;24.65;;;;;;;5.78;76.04;99820.91;10546604;28;20524;-74
2021/10/29 22:00:48;;;;;;;29.42;26.02;;;;;;;5.77;76.07;99819.22;10545949;28;20036;-73
2021/10/29 22:05:50;;;;;;;26.35;23.98;;;;;;;6.05;75.34;99813.56;10546427;28;20502;-74
2021/10/29 22:10:53;;;;;;;27.88;25.02;;;;;;;6.20;74.33;99799.41;10528614;28;20044;-73
2021/10/29 22:15:54;;;;;;;24.80;22.40;;;;;;;6.28;73.64;99808.81;10527672;28;20058;-74
2021/10/29 22:20:56;;;;;;;24.55;22.20;;;;;;;6.23;74.03;99804.56;10544389;28;20044;-73
2021/10/29 22:26:00;;;;;;;24.88;22.77;;;;;;;6.29;73.85;99804.47;10526789;28;20437;-74
2021/10/29 22:31:02;;;;;;;24.15;21.73;;;;;;;6.36;73.88;99806.06;10532876;23;20080;-74
2021/10/29 22:36:04;;;;;;;24.38;21.52;;;;;;;6.50;73.23;99796.22;10446819;28;20076;-74
2021/10/29 22:41:08;;;;;;;22.98;20.02;;;;;;;6.83;71.96;99793.84;10463748;28;20048;-73
2021/10/29 22:46:11;;;;;;;22.52;19.95;;;;;;;7.39;69.70;99790.88;10446936;28;20037;-75
2021/10/29 22:51:14;;;;;;;22.67;20.38;;;;;;;7.40;69.39;99788.25;10464510;28;20049;-75
2021/10/29 22:56:16;;;;;;;22.40;20.50;;;;;;;7.28;69.82;99783.31;10464246;28;20076;-74
2021/10/29 23:01:18;;;;;;;22.58;20.05;;;;;;;7.55;68.36;99785.28;10445635;28;20095;-74
2021/10/29 23:06:20;;;;;;;20.10;18.33;;;;;;;7.88;67.41;99788.00;10463378;28;20052;-74
2021/10/29 23:11:21;;;;;;;22.17;20.08;;;;;;;7.69;67.89;99799.78;10462629;28;20425;-75
2021/10/29 23:16:25;;;;;;;21.13;19.25;;;;;;;7.68;68.28;99790.22;10463979;28;20041;-74
2021/10/29 23:21:26;;;;;;;21.98;19.92;;;;;;;7.53;68.62;99794.94;10463805;28;20063;-74
2021/10/29 23:26:28;;;;;;;22.00;19.85;;;;;;;7.51;68.99;99795.84;10462021;28;20052;-74
2021/10/29 23:31:29;;;;;;;22.23;20.10;;;;;;;7.91;67.62;99795.75;10444868;28;20077;-75
2021/10/29 23:36:31;;;;;;;21.73;19.90;;;;;;;7.80;68.03;99797.78;10462524;28;20053;-75
2021/10/29 23:41:32;;;;;;;23.45;21.13;;;;;;;7.56;68.63;99805.31;10443420;28;20140;-74
2021/10/29 23:46:34;;;;;;;22.23;20.05;;;;;;;7.32;69.68;99811.09;10462325;28;20103;-75
2021/10/29 23:51:36;;;;;;;23.13;21.13;;;;;;;7.05;70.38;99813.41;10462486;28;20061;-75
2021/10/29 23:56:37;;;;;;;22.75;20.90;;;;;;;7.02;71.43;99816.09;10444635;28;20052;-75
